sensor_id;sensor_type;location;lat;lon;timestamp;pressure;altitude;pressure_sealevel;temperature;humidity
48926;BME280;39838;59.938;30.642;2023-02-22T00:00:56;100527.72;;;-11.18;65.22
48926;BME280;39838;59.938;30.642;2023-02-22T00:03:28;100538.13;;;-11.23;65.56
48926;BME280;39838;59.938;30.642;2023-02-22T00:05:58;100526.53;;;-11.32;65.03
48926;BME280;39838;59.938;30.642;2023-02-22T00:08:30;100533.41;;;-11.39;65.26
48926;BME280;39838;59.938;30.642;2023-02-22T00:10:59;100539.38;;;-11.47;65.49
48926;BME280;39838;59.938;30.642;2023-02-22T00:13:28;100536.84;;;-11.58;64.81
48926;BME280;39838;59.938;30.642;2023-02-22T00:15:55;100535.88;;;-11.68;65.93
48926;BME280;39838;59.938;30.642;2023-02-22T00:18:23;100545.25;;;-11.76;66.01
48926;BME280;39838;59.938;30.642;2023-02-22T00:20:52;100550.84;;;-11.78;66.21
48926;BME280;39838;59.938;30.642;2023-02-22T00:23:21;100550.72;;;-11.80;66.62
48926;BME280;39838;59.938;30.642;2023-02-22T00:25:51;100558.03;;;-11.83;66.36
48926;BME280;39838;59.938;30.642;2023-02-22T00:28:18;100554.88;;;-11.80;65.86
48926;BME280;39838;59.938;30.642;2023-02-22T00:30:45;100551.84;;;-11.87;66.61
48926;BME280;39838;59.938;30.642;2023-02-22T00:33:14;100554.84;;;-11.91;66.00
48926;BME280;39838;59.938;30.642;2023-02-22T00:35:43;100547.91;;;-11.93;66.33
48926;BME280;39838;59.938;30.642;2023-02-22T00:38:12;100560.59;;;-11.92;66.41
48926;BME280;39838;59.938;30.642;2023-02-22T00:40:40;100566.81;;;-11.97;66.67
48926;BME280;39838;59.938;30.642;2023-02-22T00:43:08;100567.41;;;-11.99;66.66
48926;BME280;39838;59.938;30.642;2023-02-22T00:45:36;100558.06;;;-12.10;67.38
48926;BME280;39838;59.938;30.642;2023-02-22T00:48:05;100581.72;;;-11.98;67.29
48926;BME280;39838;59.938;30.642;2023-02-22T00:50:33;100579.00;;;-11.91;66.68
48926;BME280;39838;59.938;30.642;2023-02-22T00:53:02;100574.72;;;-11.92;67.18
48926;BME280;39838;59.938;30.642;2023-02-22T00:55:31;100574.25;;;-11.88;66.70
48926;BME280;39838;59.938;30.642;2023-02-22T00:58:00;100591.59;;;-11.81;66.30
48926;BME280;39838;59.938;30.642;2023-02-22T01:00:31;100568.41;;;-12.16;66.51
48926;BME280;39838;59.938;30.642;2023-02-22T01:02:59;100596.53;;;-12.10;66.54
48926;BME280;39838;59.938;30.642;2023-02-22T01:05:28;100574.88;;;-12.37;66.72
48926;BME280;39838;59.938;30.642;2023-02-22T01:07:56;100606.03;;;-12.25;66.33
48926;BME280;39838;59.938;30.642;2023-02-22T01:10:27;100591.91;;;-12.33;66.00
48926;BME280;39838;59.938;30.642;2023-02-22T01:12:56;100610.75;;;-12.28;66.11
48926;BME280;39838;59.938;30.642;2023-02-22T01:15:24;100596.69;;;-12.45;65.85
48926;BME280;39838;59.938;30.642;2023-02-22T01:17:56;100606.34;;;-12.67;66.00
48926;BME280;39838;59.938;30.642;2023-02-22T01:20:24;100615.31;;;-12.69;66.47
48926;BME280;39838;59.938;30.642;2023-02-22T01:22:53;100615.22;;;-12.79;66.41
48926;BME280;39838;59.938;30.642;2023-02-22T01:25:22;100618.06;;;-12.93;66.40
48926;BME280;39838;59.938;30.642;2023-02-22T01:27:51;100629.25;;;-12.98;66.34
48926;BME280;39838;59.938;30.642;2023-02-22T01:30:20;100628.22;;;-13.00;66.22
48926;BME280;39838;59.938;30.642;2023-02-22T01:32:48;100636.75;;;-12.98;66.49
48926;BME280;39838;59.938;30.642;2023-02-22T01:35:19;100638.81;;;-13.03;66.20
48926;BME280;39838;59.938;30.642;2023-02-22T01:37:46;100651.31;;;-13.03;66.50
48926;BME280;39838;59.938;30.642;2023-02-22T01:40:17;100646.78;;;-13.07;65.91
48926;BME280;39838;59.938;30.642;2023-02-22T01:42:47;100644.84;;;-13.09;66.81
48926;BME280;39838;59.938;30.642;2023-02-22T01:45:47;100645.16;;;-13.06;67.18
48926;BME280;39838;59.938;30.642;2023-02-22T01:48:19;100644.84;;;-13.09;67.08
48926;BME280;39838;59.938;30.642;2023-02-22T01:50:51;100653.25;;;-13.00;67.53
48926;BME280;39838;59.938;30.642;2023-02-22T01:53:22;100654.84;;;-12.92;67.16
48926;BME280;39838;59.938;30.642;2023-02-22T01:55:52;100641.72;;;-12.89;67.43
48926;BME280;39838;59.938;30.642;2023-02-22T01:58:23;100638.50;;;-12.88;67.36
48926;BME280;39838;59.938;30.642;2023-02-22T02:00:51;100652.16;;;-12.76;67.31
48926;BME280;39838;59.938;30.642;2023-02-22T02:03:21;100646.56;;;-12.82;67.74
48926;BME280;39838;59.938;30.642;2023-02-22T02:05:55;100661.91;;;-12.79;67.36
48926;BME280;39838;59.938;30.642;2023-02-22T02:08:30;100632.06;;;-13.04;67.42
48926;BME280;39838;59.938;30.642;2023-02-22T02:11:02;100663.06;;;-12.84;66.90
48926;BME280;39838;59.938;30.642;2023-02-22T02:13:29;100664.22;;;-12.81;67.61
48926;BME280;39838;59.938;30.642;2023-02-22T02:16:17;100658.34;;;-12.81;67.23
48926;BME280;39838;59.938;30.642;2023-02-22T02:18:46;100667.19;;;-12.85;66.92
48926;BME280;39838;59.938;30.642;2023-02-22T02:21:41;100672.19;;;-12.85;67.05
48926;BME280;39838;59.938;30.642;2023-02-22T02:24:36;100676.91;;;-12.88;66.90
48926;BME280;39838;59.938;30.642;2023-02-22T02:27:11;100650.16;;;-13.06;66.28
48926;BME280;39838;59.938;30.642;2023-02-22T02:32:56;100684.28;;;-12.98;66.33
48926;BME280;39838;59.938;30.642;2023-02-22T02:35:41;100682.22;;;-13.02;66.33
48926;BME280;39838;59.938;30.642;2023-02-22T02:38:15;100690.47;;;-13.03;66.52
48926;BME280;39838;59.938;30.642;2023-02-22T02:40:46;100673.59;;;-13.23;66.19
48926;BME280;39838;59.938;30.642;2023-02-22T02:43:20;100694.00;;;-13.10;66.60
48926;BME280;39838;59.938;30.642;2023-02-22T02:45:54;100695.31;;;-13.05;66.52
48926;BME280;39838;59.938;30.642;2023-02-22T02:48:27;100690.06;;;-13.25;66.07
48926;BME280;39838;59.938;30.642;2023-02-22T02:50:59;100702.25;;;-13.19;66.85
48926;BME280;39838;59.938;30.642;2023-02-22T02:53:30;100709.75;;;-13.19;66.66
48926;BME280;39838;59.938;30.642;2023-02-22T02:55:59;100704.75;;;-13.28;66.77
48926;BME280;39838;59.938;30.642;2023-02-22T02:58:26;100713.72;;;-13.30;66.87
48926;BME280;39838;59.938;30.642;2023-02-22T03:00:56;100714.34;;;-13.33;67.24
48926;BME280;39838;59.938;30.642;2023-02-22T03:03:45;100722.13;;;-13.38;67.10
48926;BME280;39838;59.938;30.642;2023-02-22T03:06:44;100716.94;;;-13.48;67.44
48926;BME280;39838;59.938;30.642;2023-02-22T03:09:25;100713.13;;;-13.45;67.29
48926;BME280;39838;59.938;30.642;2023-02-22T03:12:03;100725.22;;;-13.32;67.60
48926;BME280;39838;59.938;30.642;2023-02-22T03:14:38;100721.38;;;-13.37;67.16
48926;BME280;39838;59.938;30.642;2023-02-22T03:17:15;100733.44;;;-13.33;67.36
48926;BME280;39838;59.938;30.642;2023-02-22T03:19:49;100729.63;;;-13.38;66.93
48926;BME280;39838;59.938;30.642;2023-02-22T03:22:20;100741.78;;;-13.41;67.23
48926;BME280;39838;59.938;30.642;2023-02-22T03:24:52;100731.97;;;-13.40;67.62
48926;BME280;39838;59.938;30.642;2023-02-22T03:27:27;100733.41;;;-13.42;67.17
48926;BME280;39838;59.938;30.642;2023-02-22T03:29:58;100731.38;;;-13.46;67.19
48926;BME280;39838;59.938;30.642;2023-02-22T03:32:35;100733.69;;;-13.56;66.92
48926;BME280;39838;59.938;30.642;2023-02-22T03:35:06;100711.94;;;-13.66;67.72
48926;BME280;39838;59.938;30.642;2023-02-22T03:37:38;100743.41;;;-13.51;67.44
48926;BME280;39838;59.938;30.642;2023-02-22T03:40:09;100717.19;;;-13.71;67.65
48926;BME280;39838;59.938;30.642;2023-02-22T03:42:42;100748.81;;;-13.63;67.82
48926;BME280;39838;59.938;30.642;2023-02-22T03:45:13;100752.81;;;-13.57;68.14
48926;BME280;39838;59.938;30.642;2023-02-22T03:47:44;100729.69;;;-13.71;67.75
48926;BME280;39838;59.938;30.642;2023-02-22T03:50:19;100731.00;;;-13.75;67.91
48926;BME280;39838;59.938;30.642;2023-02-22T03:52:47;100762.78;;;-13.65;67.78
48926;BME280;39838;59.938;30.642;2023-02-22T03:55:14;100761.31;;;-13.63;68.25
48926;BME280;39838;59.938;30.642;2023-02-22T03:57:45;100759.41;;;-13.57;67.96
48926;BME280;39838;59.938;30.642;2023-02-22T04:00:15;100762.22;;;-13.54;67.88
48926;BME280;39838;59.938;30.642;2023-02-22T04:02:43;100755.56;;;-13.62;67.84
48926;BME280;39838;59.938;30.642;2023-02-22T04:05:10;100765.28;;;-13.57;68.13
48926;BME280;39838;59.938;30.642;2023-02-22T04:07:40;100767.53;;;-13.51;67.90
48926;BME280;39838;59.938;30.642;2023-02-22T04:10:08;100756.94;;;-13.48;67.75
48926;BME280;39838;59.938;30.642;2023-02-22T04:12:35;100772.38;;;-13.44;67.39
48926;BME280;39838;59.938;30.642;2023-02-22T04:15:05;100769.88;;;-13.44;67.71
48926;BME280;39838;59.938;30.642;2023-02-22T04:17:32;100772.66;;;-13.50;67.59
48926;BME280;39838;59.938;30.642;2023-02-22T04:19:59;100776.31;;;-13.55;67.17
48926;BME280;39838;59.938;30.642;2023-02-22T04:22:29;100780.16;;;-13.50;66.67
48926;BME280;39838;59.938;30.642;2023-02-22T04:24:57;100780.47;;;-13.46;67.14
48926;BME280;39838;59.938;30.642;2023-02-22T04:27:24;100782.09;;;-13.47;66.75
48926;BME280;39838;59.938;30.642;2023-02-22T04:29:52;100782.09;;;-13.47;66.98
48926;BME280;39838;59.938;30.642;2023-02-22T04:32:19;100794.41;;;-13.48;66.92
48926;BME280;39838;59.938;30.642;2023-02-22T04:34:46;100794.53;;;-13.56;67.11
48926;BME280;39838;59.938;30.642;2023-02-22T04:37:13;100801.31;;;-13.55;67.11
48926;BME280;39838;59.938;30.642;2023-02-22T04:39:40;100800.69;;;-13.69;67.01
48926;BME280;39838;59.938;30.642;2023-02-22T04:42:09;100797.69;;;-13.83;67.36
48926;BME280;39838;59.938;30.642;2023-02-22T04:44:36;100798.53;;;-13.91;67.55
48926;BME280;39838;59.938;30.642;2023-02-22T04:47:03;100801.50;;;-13.86;67.74
48926;BME280;39838;59.938;30.642;2023-02-22T04:49:30;100804.16;;;-13.85;67.61
48926;BME280;39838;59.938;30.642;2023-02-22T04:51:57;100800.03;;;-13.84;67.78
48926;BME280;39838;59.938;30.642;2023-02-22T04:54:24;100803.56;;;-13.82;67.70
48926;BME280;39838;59.938;30.642;2023-02-22T04:56:51;100807.13;;;-13.80;67.37
48926;BME280;39838;59.938;30.642;2023-02-22T04:59:20;100806.94;;;-13.82;67.49
48926;BME280;39838;59.938;30.642;2023-02-22T05:01:47;100819.16;;;-13.76;67.78
48926;BME280;39838;59.938;30.642;2023-02-22T05:04:14;100818.03;;;-13.71;67.67
48926;BME280;39838;59.938;30.642;2023-02-22T05:06:41;100819.75;;;-13.79;67.64
48926;BME280;39838;59.938;30.642;2023-02-22T05:09:08;100818.13;;;-13.87;67.18
48926;BME280;39838;59.938;30.642;2023-02-22T05:11:35;100825.88;;;-13.92;67.39
48926;BME280;39838;59.938;30.642;2023-02-22T05:14:02;100825.53;;;-13.95;67.39
48926;BME280;39838;59.938;30.642;2023-02-22T05:16:31;100831.72;;;-14.00;67.42
48926;BME280;39838;59.938;30.642;2023-02-22T05:18:58;100832.59;;;-14.00;67.38
48926;BME280;39838;59.938;30.642;2023-02-22T05:21:25;100834.03;;;-14.02;67.17
48926;BME280;39838;59.938;30.642;2023-02-22T05:23:52;100832.84;;;-14.06;67.19
48926;BME280;39838;59.938;30.642;2023-02-22T05:26:19;100836.63;;;-14.09;67.73
48926;BME280;39838;59.938;30.642;2023-02-22T05:28:46;100822.63;;;-14.16;67.63
48926;BME280;39838;59.938;30.642;2023-02-22T05:31:14;100843.09;;;-14.11;67.75
48926;BME280;39838;59.938;30.642;2023-02-22T05:33:43;100843.22;;;-14.10;68.09
48926;BME280;39838;59.938;30.642;2023-02-22T05:36:10;100846.94;;;-14.06;67.41
48926;BME280;39838;59.938;30.642;2023-02-22T05:38:37;100852.72;;;-13.98;67.48
48926;BME280;39838;59.938;30.642;2023-02-22T05:41:10;100852.34;;;-13.86;67.78
48926;BME280;39838;59.938;30.642;2023-02-22T05:43:38;100854.59;;;-13.80;67.44
48926;BME280;39838;59.938;30.642;2023-02-22T05:46:05;100855.31;;;-13.81;67.74
48926;BME280;39838;59.938;30.642;2023-02-22T05:48:33;100853.88;;;-13.70;67.78
48926;BME280;39838;59.938;30.642;2023-02-22T05:51:02;100856.28;;;-13.55;67.95
48926;BME280;39838;59.938;30.642;2023-02-22T05:53:29;100866.09;;;-13.40;67.45
48926;BME280;39838;59.938;30.642;2023-02-22T05:55:56;100864.94;;;-13.27;67.58
48926;BME280;39838;59.938;30.642;2023-02-22T05:58:23;100868.47;;;-13.16;66.94
48926;BME280;39838;59.938;30.642;2023-02-22T06:00:51;100873.59;;;-13.14;66.72
48926;BME280;39838;59.938;30.642;2023-02-22T06:03:18;100866.56;;;-13.18;66.77
48926;BME280;39838;59.938;30.642;2023-02-22T06:05:45;100865.81;;;-13.17;66.50
48926;BME280;39838;59.938;30.642;2023-02-22T06:08:14;100870.53;;;-13.12;66.57
48926;BME280;39838;59.938;30.642;2023-02-22T06:10:42;100834.91;;;-13.18;66.38
48926;BME280;39838;59.938;30.642;2023-02-22T06:13:09;100865.13;;;-12.99;66.29
48926;BME280;39838;59.938;30.642;2023-02-22T06:15:36;100865.13;;;-12.90;66.37
48926;BME280;39838;59.938;30.642;2023-02-22T06:18:03;100870.88;;;-12.83;66.24
48926;BME280;39838;59.938;30.642;2023-02-22T06:20:30;100873.25;;;-12.76;66.16
48926;BME280;39838;59.938;30.642;2023-02-22T06:22:59;100858.84;;;-12.78;66.56
48926;BME280;39838;59.938;30.642;2023-02-22T06:25:29;100870.75;;;-12.67;66.12
48926;BME280;39838;59.938;30.642;2023-02-22T06:27:57;100883.84;;;-12.61;66.01
48926;BME280;39838;59.938;30.642;2023-02-22T06:30:25;100884.31;;;-12.56;65.45
48926;BME280;39838;59.938;30.642;2023-02-22T06:32:53;100889.31;;;-12.48;65.38
48926;BME280;39838;59.938;30.642;2023-02-22T06:35:21;100893.88;;;-12.35;65.91
48926;BME280;39838;59.938;30.642;2023-02-22T06:37:48;100882.25;;;-12.43;65.12
48926;BME280;39838;59.938;30.642;2023-02-22T06:40:15;100897.41;;;-12.33;65.13
48926;BME280;39838;59.938;30.642;2023-02-22T06:42:46;100906.84;;;-12.22;65.14
48926;BME280;39838;59.938;30.642;2023-02-22T06:45:15;100904.06;;;-12.16;65.58
48926;BME280;39838;59.938;30.642;2023-02-22T06:47:43;100911.56;;;-12.16;65.47
48926;BME280;39838;59.938;30.642;2023-02-22T06:50:18;100917.88;;;-12.20;64.67
48926;BME280;39838;59.938;30.642;2023-02-22T06:52:46;100911.25;;;-12.19;65.46
48926;BME280;39838;59.938;30.642;2023-02-22T06:55:16;100908.31;;;-12.15;65.41
48926;BME280;39838;59.938;30.642;2023-02-22T06:57:45;100915.09;;;-12.14;64.80
48926;BME280;39838;59.938;30.642;2023-02-22T07:00:15;100909.94;;;-12.16;65.36
48926;BME280;39838;59.938;30.642;2023-02-22T07:02:43;100914.09;;;-12.25;64.48
48926;BME280;39838;59.938;30.642;2023-02-22T07:05:11;100917.44;;;-12.33;64.87
48926;BME280;39838;59.938;30.642;2023-02-22T07:07:39;100902.56;;;-12.40;64.85
48926;BME280;39838;59.938;30.642;2023-02-22T07:10:07;100916.41;;;-12.26;65.61
48926;BME280;39838;59.938;30.642;2023-02-22T07:12:34;100923.22;;;-12.17;65.85
48926;BME280;39838;59.938;30.642;2023-02-22T07:15:04;100919.97;;;-11.98;65.31
48926;BME280;39838;59.938;30.642;2023-02-22T07:17:31;100910.66;;;-11.91;65.87
48926;BME280;39838;59.938;30.642;2023-02-22T07:19:58;100925.31;;;-11.68;65.71
48926;BME280;39838;59.938;30.642;2023-02-22T07:22:25;100927.06;;;-11.49;65.98
48926;BME280;39838;59.938;30.642;2023-02-22T07:24:52;100934.84;;;-11.38;65.16
48926;BME280;39838;59.938;30.642;2023-02-22T07:27:19;100936.13;;;-11.24;64.94
48926;BME280;39838;59.938;30.642;2023-02-22T07:29:47;100936.34;;;-11.04;65.05
48926;BME280;39838;59.938;30.642;2023-02-22T07:32:16;100944.78;;;-10.84;64.52
48926;BME280;39838;59.938;30.642;2023-02-22T07:34:43;100941.75;;;-10.71;64.97
48926;BME280;39838;59.938;30.642;2023-02-22T07:37:10;100946.00;;;-10.62;64.25
48926;BME280;39838;59.938;30.642;2023-02-22T07:39:37;100949.41;;;-10.61;64.71
48926;BME280;39838;59.938;30.642;2023-02-22T07:42:06;100952.78;;;-10.61;65.28
48926;BME280;39838;59.938;30.642;2023-02-22T07:44:33;100958.06;;;-10.58;64.15
48926;BME280;39838;59.938;30.642;2023-02-22T07:47:02;100960.94;;;-10.44;65.04
48926;BME280;39838;59.938;30.642;2023-02-22T07:49:30;100965.19;;;-10.35;65.43
48926;BME280;39838;59.938;30.642;2023-02-22T07:51:57;100963.00;;;-10.22;64.98
48926;BME280;39838;59.938;30.642;2023-02-22T07:54:24;100958.84;;;-10.21;64.38
48926;BME280;39838;59.938;30.642;2023-02-22T07:56:51;100952.81;;;-10.23;63.97
48926;BME280;39838;59.938;30.642;2023-02-22T07:59:18;100958.59;;;-10.24;64.65
48926;BME280;39838;59.938;30.642;2023-02-22T08:01:48;100965.75;;;-10.29;64.41
48926;BME280;39838;59.938;30.642;2023-02-22T08:04:16;100971.75;;;-10.46;64.63
48926;BME280;39838;59.938;30.642;2023-02-22T08:06:44;100974.38;;;-10.44;65.09
48926;BME280;39838;59.938;30.642;2023-02-22T08:09:11;100987.63;;;-10.36;65.50
48926;BME280;39838;59.938;30.642;2023-02-22T08:11:38;100985.41;;;-10.33;65.26
48926;BME280;39838;59.938;30.642;2023-02-22T08:14:06;100982.72;;;-10.26;64.38
48926;BME280;39838;59.938;30.642;2023-02-22T08:16:33;100984.59;;;-10.24;65.50
48926;BME280;39838;59.938;30.642;2023-02-22T08:19:00;100983.91;;;-10.12;65.63
48926;BME280;39838;59.938;30.642;2023-02-22T08:21:27;100990.38;;;-10.06;65.01
48926;BME280;39838;59.938;30.642;2023-02-22T08:23:56;100988.84;;;-10.04;65.82
48926;BME280;39838;59.938;30.642;2023-02-22T08:26:23;100996.50;;;-9.94;66.52
48926;BME280;39838;59.938;30.642;2023-02-22T08:28:50;101006.75;;;-9.82;65.98
48926;BME280;39838;59.938;30.642;2023-02-22T08:31:17;101003.81;;;-9.68;65.59
48926;BME280;39838;59.938;30.642;2023-02-22T08:33:47;101003.72;;;-9.59;66.02
48926;BME280;39838;59.938;30.642;2023-02-22T08:36:14;101007.84;;;-9.41;66.40
48926;BME280;39838;59.938;30.642;2023-02-22T08:38:43;101014.47;;;-9.22;66.56
48926;BME280;39838;59.938;30.642;2023-02-22T08:41:11;101015.34;;;-9.22;66.25
48926;BME280;39838;59.938;30.642;2023-02-22T08:43:38;101015.84;;;-9.26;65.86
48926;BME280;39838;59.938;30.642;2023-02-22T08:46:05;101002.41;;;-9.16;66.67
48926;BME280;39838;59.938;30.642;2023-02-22T08:48:32;101006.22;;;-9.11;66.51
48926;BME280;39838;59.938;30.642;2023-02-22T08:50:59;100999.66;;;-9.09;66.27
48926;BME280;39838;59.938;30.642;2023-02-22T08:53:27;101006.22;;;-9.11;66.76
48926;BME280;39838;59.938;30.642;2023-02-22T08:55:54;101017.44;;;-9.07;67.09
48926;BME280;39838;59.938;30.642;2023-02-22T08:58:23;101015.81;;;-8.97;67.49
48926;BME280;39838;59.938;30.642;2023-02-22T09:00:50;101010.06;;;-8.86;66.52
48926;BME280;39838;59.938;30.642;2023-02-22T09:03:17;101005.66;;;-8.78;66.88
48926;BME280;39838;59.938;30.642;2023-02-22T09:05:44;101015.91;;;-8.66;67.14
48926;BME280;39838;59.938;30.642;2023-02-22T09:08:11;101017.03;;;-8.63;66.84
48926;BME280;39838;59.938;30.642;2023-02-22T09:10:39;101009.50;;;-8.52;67.02
48926;BME280;39838;59.938;30.642;2023-02-22T09:13:07;101011.13;;;-8.43;67.48
48926;BME280;39838;59.938;30.642;2023-02-22T09:15:35;101013.88;;;-8.30;67.10
48926;BME280;39838;59.938;30.642;2023-02-22T09:18:05;101010.13;;;-8.25;67.58
48926;BME280;39838;59.938;30.642;2023-02-22T09:20:34;101013.88;;;-8.09;67.45
48926;BME280;39838;59.938;30.642;2023-02-22T09:23:02;101025.22;;;-7.94;67.61
48926;BME280;39838;59.938;30.642;2023-02-22T09:25:29;101031.16;;;-7.83;66.82
48926;BME280;39838;59.938;30.642;2023-02-22T09:28:00;101003.78;;;-7.89;66.46
48926;BME280;39838;59.938;30.642;2023-02-22T09:30:28;101031.22;;;-7.61;67.11
48926;BME280;39838;59.938;30.642;2023-02-22T09:32:59;101007.75;;;-7.60;66.57
48926;BME280;39838;59.938;30.642;2023-02-22T09:35:27;101035.84;;;-7.35;66.70
48926;BME280;39838;59.938;30.642;2023-02-22T09:37:55;101036.81;;;-7.23;66.46
48926;BME280;39838;59.938;30.642;2023-02-22T09:40:23;101036.56;;;-7.26;66.25
48926;BME280;39838;59.938;30.642;2023-02-22T09:43:13;101024.38;;;-7.42;66.14
48926;BME280;39838;59.938;30.642;2023-02-22T09:45:54;101056.75;;;-7.26;65.63
48926;BME280;39838;59.938;30.642;2023-02-22T09:48:25;101072.50;;;-7.19;65.85
48926;BME280;39838;59.938;30.642;2023-02-22T09:50:58;101037.47;;;-7.36;65.52
48926;BME280;39838;59.938;30.642;2023-02-22T09:53:32;101058.88;;;-7.21;65.07
48926;BME280;39838;59.938;30.642;2023-02-22T09:56:04;101041.88;;;-7.33;64.89
48926;BME280;39838;59.938;30.642;2023-02-22T09:58:38;101064.72;;;-7.32;65.13
48926;BME280;39838;59.938;30.642;2023-02-22T10:01:18;101019.34;;;-7.52;64.87
48926;BME280;39838;59.938;30.642;2023-02-22T10:03:53;101053.41;;;-7.37;65.29
48926;BME280;39838;59.938;30.642;2023-02-22T10:06:23;101067.13;;;-7.23;65.42
48926;BME280;39838;59.938;30.642;2023-02-22T10:08:52;101071.13;;;-7.15;65.28
48926;BME280;39838;59.938;30.642;2023-02-22T10:11:34;101073.06;;;-6.91;65.47
48926;BME280;39838;59.938;30.642;2023-02-22T10:14:13;101082.16;;;-6.71;65.36
48926;BME280;39838;59.938;30.642;2023-02-22T10:16:53;101075.53;;;-6.58;64.38
48926;BME280;39838;59.938;30.642;2023-02-22T10:19:31;101070.91;;;-6.42;64.76
48926;BME280;39838;59.938;30.642;2023-02-22T10:22:29;101065.47;;;-6.25;64.53
48926;BME280;39838;59.938;30.642;2023-02-22T10:25:00;101069.38;;;-6.40;63.62
48926;BME280;39838;59.938;30.642;2023-02-22T10:27:32;101083.50;;;-6.54;62.78
48926;BME280;39838;59.938;30.642;2023-02-22T10:30:07;101084.38;;;-6.75;63.16
48926;BME280;39838;59.938;30.642;2023-02-22T10:32:42;101083.41;;;-6.88;63.20
48926;BME280;39838;59.938;30.642;2023-02-22T10:35:20;101072.50;;;-7.08;63.04
48926;BME280;39838;59.938;30.642;2023-02-22T10:37:50;101081.94;;;-7.06;63.56
48926;BME280;39838;59.938;30.642;2023-02-22T10:40:21;101028.97;;;-7.26;63.80
48926;BME280;39838;59.938;30.642;2023-02-22T10:42:59;101084.53;;;-6.84;63.51
48926;BME280;39838;59.938;30.642;2023-02-22T10:45:28;101090.03;;;-6.78;63.85
48926;BME280;39838;59.938;30.642;2023-02-22T10:47:58;101092.56;;;-6.78;63.26
48926;BME280;39838;59.938;30.642;2023-02-22T10:50:29;101098.16;;;-6.82;62.58
48926;BME280;39838;59.938;30.642;2023-02-22T10:52:57;101097.50;;;-6.79;62.85
48926;BME280;39838;59.938;30.642;2023-02-22T10:55:24;101106.34;;;-6.74;62.29
48926;BME280;39838;59.938;30.642;2023-02-22T10:57:59;101103.69;;;-6.76;62.10
48926;BME280;39838;59.938;30.642;2023-02-22T11:00:31;101091.56;;;-6.80;62.18
48926;BME280;39838;59.938;30.642;2023-02-22T11:03:05;101105.94;;;-6.69;61.81
48926;BME280;39838;59.938;30.642;2023-02-22T11:05:44;101107.91;;;-6.65;62.14
48926;BME280;39838;59.938;30.642;2023-02-22T11:08:21;101099.34;;;-6.67;61.56
48926;BME280;39838;59.938;30.642;2023-02-22T11:10:50;101110.41;;;-6.54;61.90
48926;BME280;39838;59.938;30.642;2023-02-22T11:13:24;101096.00;;;-6.55;61.59
48926;BME280;39838;59.938;30.642;2023-02-22T11:15:54;101102.47;;;-6.37;62.17
48926;BME280;39838;59.938;30.642;2023-02-22T11:18:24;101105.47;;;-6.31;61.07
48926;BME280;39838;59.938;30.642;2023-02-22T11:21:02;101110.53;;;-6.31;60.96
48926;BME280;39838;59.938;30.642;2023-02-22T11:23:31;101056.50;;;-6.65;60.18
48926;BME280;39838;59.938;30.642;2023-02-22T11:26:03;101116.44;;;-6.42;59.89
48926;BME280;39838;59.938;30.642;2023-02-22T11:28:31;101116.16;;;-6.45;60.48
48926;BME280;39838;59.938;30.642;2023-02-22T11:31:09;101126.84;;;-6.49;60.29
48926;BME280;39838;59.938;30.642;2023-02-22T11:33:38;101126.69;;;-6.51;60.71
48926;BME280;39838;59.938;30.642;2023-02-22T11:36:07;101118.38;;;-6.50;60.33
48926;BME280;39838;59.938;30.642;2023-02-22T11:38:36;101122.66;;;-6.49;60.39
48926;BME280;39838;59.938;30.642;2023-02-22T11:41:11;101107.09;;;-6.43;60.22
48926;BME280;39838;59.938;30.642;2023-02-22T11:43:40;101096.97;;;-6.43;59.94
48926;BME280;39838;59.938;30.642;2023-02-22T11:46:11;101108.28;;;-6.38;59.49
48926;BME280;39838;59.938;30.642;2023-02-22T11:48:43;101107.59;;;-6.47;59.94
48926;BME280;39838;59.938;30.642;2023-02-22T11:51:25;101087.13;;;-6.50;60.00
48926;BME280;39838;59.938;30.642;2023-02-22T11:54:10;101107.00;;;-6.33;59.89
48926;BME280;39838;59.938;30.642;2023-02-22T11:56:48;101110.41;;;-6.33;59.39
48926;BME280;39838;59.938;30.642;2023-02-22T11:59:25;101106.91;;;-6.35;59.75
48926;BME280;39838;59.938;30.642;2023-02-22T12:01:59;101116.53;;;-6.19;59.82
48926;BME280;39838;59.938;30.642;2023-02-22T12:04:50;101123.00;;;-6.00;59.93
48926;BME280;39838;59.938;30.642;2023-02-22T12:07:31;101102.28;;;-6.07;59.53
48926;BME280;39838;59.938;30.642;2023-02-22T12:10:13;101126.75;;;-5.95;58.88
48926;BME280;39838;59.938;30.642;2023-02-22T12:12:57;101125.06;;;-6.07;58.77
48926;BME280;39838;59.938;30.642;2023-02-22T12:15:29;101131.66;;;-6.09;59.22
48926;BME280;39838;59.938;30.642;2023-02-22T12:18:00;101132.34;;;-5.99;59.15
48926;BME280;39838;59.938;30.642;2023-02-22T12:20:35;101130.03;;;-5.96;59.35
48926;BME280;39838;59.938;30.642;2023-02-22T12:23:13;101092.53;;;-6.24;58.18
48926;BME280;39838;59.938;30.642;2023-02-22T12:25:52;101141.69;;;-5.98;59.02
48926;BME280;39838;59.938;30.642;2023-02-22T12:28:28;101131.16;;;-5.93;59.19
48926;BME280;39838;59.938;30.642;2023-02-22T12:31:04;101132.69;;;-5.95;58.07
48926;BME280;39838;59.938;30.642;2023-02-22T12:33:41;101134.03;;;-6.10;58.26
48926;BME280;39838;59.938;30.642;2023-02-22T12:36:13;101138.69;;;-6.05;58.69
48926;BME280;39838;59.938;30.642;2023-02-22T12:38:47;101141.47;;;-6.01;57.79
48926;BME280;39838;59.938;30.642;2023-02-22T12:41:21;101136.56;;;-6.10;58.23
48926;BME280;39838;59.938;30.642;2023-02-22T12:43:56;101141.53;;;-6.12;58.12
48926;BME280;39838;59.938;30.642;2023-02-22T12:46:29;101145.28;;;-6.07;58.36
48926;BME280;39838;59.938;30.642;2023-02-22T12:49:02;101143.75;;;-6.05;58.45
48926;BME280;39838;59.938;30.642;2023-02-22T12:51:35;101156.88;;;-5.98;57.40
48926;BME280;39838;59.938;30.642;2023-02-22T12:54:10;101142.28;;;-6.13;57.84